createdAt,value
2022-10-17T00:00:53.184Z,7.60
2022-10-17T00:03:20.671Z,7.60
2022-10-17T00:05:49.135Z,7.60
2022-10-17T00:08:18.173Z,7.60
2022-10-17T00:10:45.848Z,7.50
2022-10-17T00:13:13.567Z,7.50
2022-10-17T00:15:45.056Z,7.50
2022-10-17T00:18:12.544Z,7.50
2022-10-17T00:20:39.943Z,7.60
2022-10-17T00:23:07.344Z,7.60
2022-10-17T00:25:34.795Z,7.60
2022-10-17T00:28:02.179Z,7.70
2022-10-17T00:30:29.792Z,7.70
2022-10-17T00:32:57.151Z,7.60
2022-10-17T00:35:24.609Z,7.40
2022-10-17T00:37:52.007Z,7.40
2022-10-17T00:40:19.624Z,7.30
2022-10-17T00:42:47.074Z,7.30
2022-10-17T00:45:25.159Z,7.30
2022-10-17T00:48:08.603Z,7.20
2022-10-17T00:50:38.779Z,7.20
2022-10-17T00:53:09.567Z,7.20
2022-10-17T00:55:48.437Z,7.20
2022-10-17T00:58:16.685Z,7.20
2022-10-17T01:00:45.357Z,7.20
2022-10-17T01:03:12.884Z,7.20
2022-10-17T01:05:42.258Z,7.30
2022-10-17T01:08:10.376Z,7.30
2022-10-17T01:11:10.248Z,7.20
2022-10-17T01:14:11.503Z,7.20
2022-10-17T01:16:38.871Z,7.30
2022-10-17T01:19:46.744Z,7.20
2022-10-17T01:22:36.929Z,7.20
2022-10-17T01:25:42.375Z,7.10
2022-10-17T01:28:19.718Z,7.00
2022-10-17T01:31:08.111Z,7.00
2022-10-17T01:34:01.124Z,7.00
2022-10-17T01:36:48.202Z,7.00
2022-10-17T01:39:36.853Z,7.00
2022-10-17T01:42:19.960Z,7.00
2022-10-17T01:44:55.819Z,7.00
2022-10-17T01:47:28.443Z,7.00
2022-10-17T01:50:01.476Z,6.90
2022-10-17T01:52:38.642Z,7.00
2022-10-17T01:55:31.907Z,6.90
2022-10-17T01:58:12.592Z,6.90
2022-10-17T02:00:42.862Z,6.80
2022-10-17T02:03:13.593Z,6.90
2022-10-17T02:05:42.894Z,6.90
2022-10-17T02:08:10.448Z,6.90
2022-10-17T02:10:52.236Z,6.90
2022-10-17T02:13:39.100Z,6.80
2022-10-17T02:16:29.520Z,6.80
2022-10-17T02:19:18.084Z,6.80
2022-10-17T02:21:50.184Z,6.80
2022-10-17T02:24:45.777Z,6.80
2022-10-17T02:27:32.348Z,6.80
2022-10-17T02:30:14.698Z,6.80
2022-10-17T02:32:54.924Z,6.80
2022-10-17T02:35:24.346Z,6.80
2022-10-17T02:37:52.782Z,6.80
2022-10-17T02:40:23.039Z,6.70
2022-10-17T02:42:53.089Z,6.70
2022-10-17T02:45:21.908Z,6.70
2022-10-17T02:48:00.938Z,6.70
2022-10-17T02:50:52.751Z,6.70
2022-10-17T02:53:55.851Z,6.70
2022-10-17T02:56:26.682Z,6.70
2022-10-17T02:58:58.062Z,6.70
2022-10-17T03:01:26.500Z,6.70
2022-10-17T03:04:06.324Z,6.70
2022-10-17T03:06:33.746Z,6.60
2022-10-17T03:09:01.137Z,6.60
2022-10-17T03:11:28.550Z,6.60
2022-10-17T03:13:56.386Z,6.60
2022-10-17T03:16:23.757Z,6.70
2022-10-17T03:18:51.169Z,6.60
2022-10-17T03:21:18.572Z,6.60
2022-10-17T03:23:46.103Z,6.70
2022-10-17T03:26:13.905Z,6.60
2022-10-17T03:28:41.341Z,6.60
2022-10-17T03:31:11.101Z,6.70
2022-10-17T03:33:38.700Z,6.60
2022-10-17T03:36:08.127Z,6.60
2022-10-17T03:38:36.059Z,6.60
2022-10-17T03:41:04.605Z,6.60
2022-10-17T03:43:32.168Z,6.50
2022-10-17T03:46:01.197Z,6.50
2022-10-17T03:48:31.086Z,6.60
2022-10-17T03:51:04.039Z,6.60
2022-10-17T03:53:31.529Z,6.60
2022-10-17T03:56:16.405Z,6.60
2022-10-17T03:58:44.399Z,6.60
2022-10-17T04:01:14.520Z,6.60
2022-10-17T04:03:42.739Z,6.60
2022-10-17T04:06:12.880Z,6.60
2022-10-17T04:08:40.425Z,6.50
2022-10-17T04:11:09.447Z,6.50
2022-10-17T04:13:37.111Z,6.50
2022-10-17T04:16:07.142Z,6.50
2022-10-17T04:18:35.029Z,6.50
2022-10-17T04:21:03.763Z,6.50
2022-10-17T04:23:31.177Z,6.50
2022-10-17T04:26:00.079Z,6.60
2022-10-17T04:28:28.513Z,6.60
2022-10-17T04:31:01.219Z,6.70
2022-10-17T04:33:28.763Z,6.70
2022-10-17T04:36:07.434Z,6.70
2022-10-17T04:38:35.179Z,6.80
2022-10-17T04:41:05.921Z,6.80
2022-10-17T04:43:37.469Z,6.80
2022-10-17T04:46:07.845Z,6.90
2022-10-17T04:48:35.474Z,6.90
2022-10-17T04:51:06.243Z,6.90
2022-10-17T04:53:36.701Z,6.90
2022-10-17T04:56:18.924Z,6.90
2022-10-17T04:58:46.905Z,6.90
2022-10-17T05:01:18.897Z,7.00
2022-10-17T05:03:47.196Z,6.90
2022-10-17T05:06:17.240Z,7.00
2022-10-17T05:08:45.210Z,7.00
2022-10-17T05:11:27.743Z,7.00
2022-10-17T05:14:01.078Z,7.10
2022-10-17T05:16:29.348Z,7.00
2022-10-17T05:18:58.402Z,7.10
2022-10-17T05:21:28.156Z,7.10
2022-10-17T05:23:55.840Z,7.10
2022-10-17T05:26:24.141Z,7.20
2022-10-17T05:28:52.634Z,7.20
2022-10-17T05:31:20.568Z,7.30
2022-10-17T05:33:48.197Z,7.40
2022-10-17T05:36:15.647Z,7.50
2022-10-17T05:38:43.092Z,7.50
2022-10-17T05:41:11.109Z,7.60
2022-10-17T05:43:38.559Z,7.70
2022-10-17T05:46:06.765Z,7.70
2022-10-17T05:48:34.909Z,7.80
2022-10-17T05:51:05.726Z,7.90
2022-10-17T05:53:39.116Z,7.90
2022-10-17T05:56:08.614Z,8.00
2022-10-17T05:58:49.833Z,8.10
2022-10-17T06:01:18.847Z,8.20
2022-10-17T06:03:46.323Z,8.20
2022-10-17T06:06:15.092Z,8.30
2022-10-17T06:08:43.217Z,8.40
2022-10-17T06:11:11.471Z,8.50
2022-10-17T06:13:39.815Z,8.60
2022-10-17T06:16:07.462Z,8.70
2022-10-17T06:18:35.223Z,8.80
2022-10-17T06:21:04.789Z,8.80
2022-10-17T06:23:32.341Z,8.90
2022-10-17T06:26:03.758Z,9.00
2022-10-17T06:28:31.896Z,9.00
2022-10-17T06:30:59.383Z,9.10
2022-10-17T06:33:26.795Z,9.10
2022-10-17T06:35:55.851Z,9.20
2022-10-17T06:38:23.881Z,9.20
2022-10-17T06:40:51.394Z,9.30
2022-10-17T06:43:18.855Z,9.30
2022-10-17T06:45:47.686Z,9.30
2022-10-17T06:48:15.294Z,9.30
2022-10-17T06:50:42.695Z,9.40
2022-10-17T06:53:10.085Z,9.50
2022-10-17T06:55:37.481Z,9.50
2022-10-17T06:58:04.881Z,9.50
2022-10-17T07:00:32.293Z,9.60
2022-10-17T07:02:59.730Z,9.60
2022-10-17T07:05:27.138Z,9.80
2022-10-17T07:07:54.529Z,9.80
2022-10-17T07:10:21.942Z,9.90
2022-10-17T07:12:49.374Z,10.00
2022-10-17T07:15:16.820Z,10.10
2022-10-17T07:17:44.269Z,10.20
2022-10-17T07:20:11.880Z,10.30
2022-10-17T07:22:39.377Z,10.40
2022-10-17T07:25:07.478Z,10.50
2022-10-17T07:27:34.865Z,10.50
2022-10-17T07:30:02.280Z,10.60
2022-10-17T07:32:29.682Z,10.70
2022-10-17T07:34:57.121Z,10.80
2022-10-17T07:37:24.540Z,10.90
2022-10-17T07:39:51.882Z,11.00
2022-10-17T07:42:19.327Z,11.10
2022-10-17T07:44:47.633Z,11.20
2022-10-17T07:47:15.046Z,11.40
2022-10-17T07:49:44.266Z,11.40
2022-10-17T07:52:15.706Z,11.50
2022-10-17T07:54:43.751Z,11.60
2022-10-17T07:57:11.118Z,11.80
2022-10-17T07:59:38.717Z,11.90
2022-10-17T08:02:08.258Z,11.90
2022-10-17T08:04:36.635Z,12.00
2022-10-17T08:07:19.624Z,12.00
2022-10-17T08:09:48.285Z,12.00
2022-10-17T08:12:16.207Z,12.10
2022-10-17T08:14:43.972Z,12.20
2022-10-17T08:17:11.369Z,12.20
2022-10-17T08:19:40.580Z,12.30
2022-10-17T08:22:08.610Z,12.30
2022-10-17T08:24:36.139Z,12.40
2022-10-17T08:27:04.975Z,12.50
2022-10-17T08:29:32.995Z,12.60
2022-10-17T08:32:01.923Z,12.80
2022-10-17T08:34:30.439Z,12.90
2022-10-17T08:36:57.920Z,13.00
2022-10-17T08:39:25.324Z,13.10
2022-10-17T08:42:24.506Z,13.20
2022-10-17T08:45:17.100Z,13.30
2022-10-17T08:47:47.596Z,13.50
2022-10-17T08:50:39.424Z,13.70
2022-10-17T08:53:27.078Z,13.80
2022-10-17T08:55:55.551Z,13.90
2022-10-17T08:58:27.967Z,14.00
2022-10-17T09:01:18.780Z,14.10
2022-10-17T09:04:04.139Z,14.30
2022-10-17T09:06:52.277Z,14.30
2022-10-17T09:09:59.377Z,14.40
2022-10-17T09:12:35.310Z,14.40
2022-10-17T09:15:36.599Z,14.40
2022-10-17T09:18:09.986Z,14.50
2022-10-17T09:20:52.535Z,14.70
2022-10-17T09:23:31.129Z,14.70
2022-10-17T09:26:00.591Z,14.80
2022-10-17T09:28:37.181Z,14.90
2022-10-17T09:31:22.692Z,15.00
2022-10-17T09:33:54.566Z,15.10
2022-10-17T09:36:33.777Z,15.20
2022-10-17T09:39:11.530Z,15.30
2022-10-17T09:41:46.444Z,15.40
2022-10-17T09:44:33.255Z,15.40
2022-10-17T09:47:34.454Z,15.40
2022-10-17T09:50:02.330Z,15.50
2022-10-17T09:52:42.158Z,15.50
2022-10-17T09:55:25.428Z,15.60
2022-10-17T09:58:04.694Z,15.70
2022-10-17T10:00:35.207Z,15.70
2022-10-17T10:03:25.791Z,15.90
2022-10-17T10:06:13.260Z,15.90
2022-10-17T10:08:52.786Z,16.10
2022-10-17T10:11:47.243Z,16.20
2022-10-17T10:14:22.452Z,16.20
2022-10-17T10:16:53.803Z,16.40
2022-10-17T10:19:26.989Z,16.50
2022-10-17T10:22:02.697Z,16.50
2022-10-17T10:24:31.361Z,16.50
2022-10-17T10:27:04.122Z,16.40
2022-10-17T10:29:41.311Z,16.60
2022-10-17T10:32:33.108Z,16.70
2022-10-17T10:35:32.211Z,16.80
2022-10-17T10:38:02.212Z,17.00
2022-10-17T10:40:58.306Z,17.20
2022-10-17T10:43:34.643Z,17.20
2022-10-17T10:46:16.143Z,17.20
2022-10-17T10:48:52.228Z,17.30
2022-10-17T10:51:44.494Z,17.60
2022-10-17T10:54:16.349Z,17.80
2022-10-17T10:56:53.322Z,18.00
2022-10-17T10:59:43.111Z,18.30
2022-10-17T11:02:23.980Z,18.60
2022-10-17T11:04:59.285Z,18.90
2022-10-17T11:08:13.079Z,19.40
2022-10-17T11:11:04.803Z,20.90
2022-10-17T11:13:41.233Z,23.00
2022-10-17T11:16:19.939Z,24.20
2022-10-17T11:19:19.499Z,24.30
2022-10-17T11:22:16.875Z,24.90
2022-10-17T11:25:00.901Z,24.80
2022-10-17T11:27:30.219Z,25.10
2022-10-17T11:29:58.631Z,25.10
2022-10-17T11:32:44.899Z,25.20
2022-10-17T11:35:29.305Z,26.10
2022-10-17T11:38:35.717Z,26.30
2022-10-17T11:41:04.982Z,27.00
2022-10-17T11:43:50.562Z,26.70
2022-10-17T11:46:25.174Z,26.80
2022-10-17T11:49:01.569Z,26.50
2022-10-17T11:54:26.834Z,27.10
2022-10-17T11:57:21.556Z,27.10
2022-10-17T12:00:11.933Z,27.40
2022-10-17T12:03:05.300Z,27.40
2022-10-17T12:05:44.914Z,27.90
2022-10-17T12:08:37.668Z,27.00
2022-10-17T12:11:27.037Z,27.10
2022-10-17T12:13:56.877Z,26.90
2022-10-17T12:16:36.954Z,28.00
2022-10-17T12:19:06.565Z,27.60
2022-10-17T12:21:55.968Z,27.00
2022-10-17T12:24:44.136Z,27.20
2022-10-17T12:27:37.845Z,27.70
2022-10-17T12:30:25.579Z,27.50
2022-10-17T12:33:14.638Z,27.20
2022-10-17T12:35:42.051Z,27.00
2022-10-17T12:38:18.033Z,26.90
2022-10-17T12:40:49.058Z,27.30
2022-10-17T12:43:16.573Z,27.30
2022-10-17T12:45:52.828Z,27.90
2022-10-17T12:48:38.598Z,28.90
2022-10-17T12:54:08.653Z,28.30
2022-10-17T12:56:39.232Z,28.20
2022-10-17T12:59:19.720Z,28.10
2022-10-17T13:01:51.738Z,28.40
2022-10-17T13:04:19.686Z,27.90
2022-10-17T13:06:53.593Z,27.70
2022-10-17T13:09:30.863Z,27.10
2022-10-17T13:12:02.972Z,26.80
2022-10-17T13:14:32.806Z,26.80
2022-10-17T13:17:02.604Z,27.10
2022-10-17T13:19:42.208Z,26.90
2022-10-17T13:22:33.351Z,26.80
2022-10-17T13:25:13.485Z,26.90
2022-10-17T13:27:40.884Z,27.00
2022-10-17T13:30:31.096Z,26.90
2022-10-17T13:33:01.239Z,27.40
2022-10-17T13:38:32.814Z,28.10
2022-10-17T13:41:23.261Z,27.70
2022-10-17T13:43:51.188Z,27.50
2022-10-17T13:46:44.123Z,26.70
2022-10-17T13:49:20.068Z,26.70
2022-10-17T13:51:51.549Z,26.60
2022-10-17T13:54:43.018Z,26.60
2022-10-17T13:57:31.130Z,26.60
2022-10-17T14:00:10.006Z,26.20
2022-10-17T14:02:42.027Z,25.70
2022-10-17T14:05:20.980Z,24.90
2022-10-17T14:08:14.499Z,24.70
2022-10-17T14:10:45.502Z,25.00
2022-10-17T14:13:25.890Z,24.90
2022-10-17T14:15:55.332Z,24.20
2022-10-17T14:18:33.321Z,23.80
2022-10-17T14:21:37.236Z,24.20
2022-10-17T14:24:29.876Z,24.50
2022-10-17T14:26:59.754Z,24.70
2022-10-17T14:29:51.358Z,24.60
2022-10-17T14:32:19.904Z,24.70
2022-10-17T14:34:52.288Z,24.30
2022-10-17T14:37:32.034Z,23.60
2022-10-17T14:40:01.678Z,23.40
2022-10-17T14:42:29.296Z,23.40
2022-10-17T14:45:04.836Z,23.40
2022-10-17T14:47:43.540Z,23.30
2022-10-17T14:50:11.640Z,23.00
2022-10-17T14:52:39.963Z,22.40
2022-10-17T14:55:25.460Z,21.60
2022-10-17T14:57:52.853Z,21.10
2022-10-17T15:00:22.137Z,20.90
2022-10-17T15:02:50.694Z,21.00
2022-10-17T15:05:19.575Z,21.00
2022-10-17T15:07:47.320Z,20.80
2022-10-17T15:10:36.736Z,20.60
2022-10-17T15:15:52.610Z,19.60
2022-10-17T15:18:20.080Z,19.10
2022-10-17T15:20:49.598Z,18.80
2022-10-17T15:23:22.810Z,18.50
2022-10-17T15:25:50.283Z,18.20
2022-10-17T15:28:17.670Z,18.00
2022-10-17T15:30:45.296Z,17.80
2022-10-17T15:33:12.758Z,17.60
2022-10-17T15:35:40.188Z,17.50
2022-10-17T15:38:08.778Z,17.30
2022-10-17T15:40:36.289Z,17.20
2022-10-17T15:43:03.666Z,17.10
2022-10-17T15:45:33.384Z,17.00
2022-10-17T15:48:06.240Z,16.90
2022-10-17T15:50:33.679Z,16.80
2022-10-17T15:53:01.124Z,16.70
2022-10-17T15:55:28.559Z,16.70
2022-10-17T15:57:56.008Z,16.60
2022-10-17T16:00:24.455Z,16.60
2022-10-17T16:02:51.919Z,16.50
2022-10-17T16:05:25.631Z,16.50
2022-10-17T16:07:54.137Z,16.40
2022-10-17T16:10:22.928Z,16.40
2022-10-17T16:12:50.714Z,16.30
2022-10-17T16:15:25.153Z,16.30
2022-10-17T16:17:55.638Z,16.20
2022-10-17T16:20:24.387Z,16.20
2022-10-17T16:22:53.133Z,16.10
2022-10-17T16:25:24.968Z,16.00
2022-10-17T16:27:54.935Z,15.90
2022-10-17T16:30:24.405Z,15.70
2022-10-17T16:32:52.819Z,15.60
2022-10-17T16:35:30.647Z,15.50
2022-10-17T16:38:00.697Z,15.50
2022-10-17T16:40:28.174Z,15.30
2022-10-17T16:42:55.627Z,15.30
2022-10-17T16:45:23.450Z,15.20
2022-10-17T16:47:51.027Z,15.10
2022-10-17T16:50:18.677Z,15.00
2022-10-17T16:52:46.068Z,15.00
2022-10-17T16:55:13.561Z,15.00
2022-10-17T17:00:12.885Z,14.90
2022-10-17T17:02:40.342Z,14.80
2022-10-17T17:05:08.514Z,14.70
2022-10-17T17:07:36.075Z,14.70
2022-10-17T17:10:03.955Z,14.60
2022-10-17T17:12:36.331Z,14.60
2022-10-17T17:15:04.152Z,14.50
2022-10-17T17:17:48.695Z,14.50
2022-10-17T17:20:17.795Z,14.50
2022-10-17T17:22:45.267Z,14.40
2022-10-17T17:25:12.702Z,14.40
2022-10-17T17:27:40.089Z,14.40
2022-10-17T17:30:08.080Z,14.40
2022-10-17T17:32:35.544Z,14.40
2022-10-17T17:35:02.947Z,14.20
2022-10-17T17:37:30.642Z,14.20
2022-10-17T17:39:58.312Z,14.20
2022-10-17T17:42:25.794Z,14.10
2022-10-17T17:44:53.290Z,14.10
2022-10-17T17:47:20.752Z,14.00
2022-10-17T17:49:48.370Z,13.90
2022-10-17T17:52:15.836Z,13.90
2022-10-17T17:54:44.748Z,13.90
2022-10-17T17:57:12.586Z,13.80
2022-10-17T17:59:41.291Z,13.80
2022-10-17T18:02:10.527Z,13.80
2022-10-17T18:04:38.107Z,13.70
2022-10-17T18:07:05.547Z,13.60
2022-10-17T18:09:32.991Z,13.60
2022-10-17T18:12:00.461Z,13.60
2022-10-17T18:14:28.003Z,13.50
2022-10-17T18:16:55.495Z,13.50
2022-10-17T18:19:23.944Z,13.50
2022-10-17T18:21:51.413Z,13.50
2022-10-17T18:24:18.984Z,13.50
2022-10-17T18:26:46.421Z,13.50
2022-10-17T18:29:13.853Z,13.50
2022-10-17T18:31:41.392Z,13.40
2022-10-17T18:34:08.878Z,13.40
2022-10-17T18:36:37.855Z,13.40
2022-10-17T18:39:05.932Z,13.40
2022-10-17T18:41:34.110Z,13.40
2022-10-17T18:44:03.158Z,13.30
2022-10-17T18:46:36.347Z,13.30
2022-10-17T18:49:04.130Z,13.30
2022-10-17T18:51:31.613Z,13.30
2022-10-17T18:53:59.150Z,13.30
2022-10-17T18:56:27.130Z,13.20
2022-10-17T18:58:55.685Z,13.30
2022-10-17T19:01:26.026Z,13.20
2022-10-17T19:03:56.193Z,13.20
2022-10-17T19:06:29.975Z,13.10
2022-10-17T19:08:59.228Z,13.20
2022-10-17T19:11:28.181Z,13.20
2022-10-17T19:14:00.827Z,13.10
2022-10-17T19:16:35.063Z,13.10
2022-10-17T19:19:06.025Z,13.10
2022-10-17T19:21:34.415Z,13.10
2022-10-17T19:24:05.877Z,13.00
2022-10-17T19:26:35.435Z,13.00
2022-10-17T19:29:03.671Z,13.00
2022-10-17T19:31:32.606Z,13.00
2022-10-17T19:34:00.490Z,13.00
2022-10-17T19:36:33.241Z,13.00
2022-10-17T19:39:23.383Z,13.00
2022-10-17T19:41:50.991Z,13.00
2022-10-17T19:44:18.677Z,13.00
2022-10-17T19:46:47.133Z,13.00
2022-10-17T19:49:15.166Z,12.90
2022-10-17T19:51:42.598Z,12.90
2022-10-17T19:54:10.853Z,12.90
2022-10-17T19:56:38.844Z,12.90
2022-10-17T19:59:07.337Z,12.90
2022-10-17T20:01:39.077Z,12.80
2022-10-17T20:04:08.690Z,12.80
2022-10-17T20:06:36.378Z,12.70
2022-10-17T20:09:05.345Z,12.80
2022-10-17T20:11:33.138Z,12.70
2022-10-17T20:14:02.008Z,12.70
2022-10-17T20:16:32.561Z,12.70
2022-10-17T20:19:08.544Z,12.70
2022-10-17T20:21:37.352Z,12.70
2022-10-17T20:24:06.696Z,12.70
2022-10-17T20:26:38.746Z,12.70
2022-10-17T20:29:12.884Z,12.70
2022-10-17T20:31:42.324Z,12.70
2022-10-17T20:34:13.333Z,12.70
2022-10-17T20:36:41.322Z,12.70
2022-10-17T20:39:10.188Z,12.70
2022-10-17T20:41:37.725Z,12.70
2022-10-17T20:44:06.939Z,12.70
2022-10-17T20:46:37.628Z,12.70
2022-10-17T20:49:07.402Z,12.60
2022-10-17T20:51:35.647Z,12.60
2022-10-17T20:54:03.640Z,12.60
2022-10-17T20:56:32.466Z,12.50
2022-10-17T20:59:02.481Z,12.50
2022-10-17T21:01:31.549Z,12.50
2022-10-17T21:04:06.325Z,12.50
2022-10-17T21:06:43.597Z,12.50
2022-10-17T21:09:11.060Z,12.50
2022-10-17T21:11:39.419Z,12.40
2022-10-17T21:14:08.155Z,12.40
2022-10-17T21:16:39.267Z,12.40
2022-10-17T21:19:06.650Z,12.40
2022-10-17T21:21:36.427Z,12.40
2022-10-17T21:24:09.107Z,12.40
2022-10-17T21:26:38.003Z,12.40
2022-10-17T21:29:06.721Z,12.30
2022-10-17T21:31:36.779Z,12.30
2022-10-17T21:34:15.691Z,12.30
2022-10-17T21:36:43.527Z,12.30
2022-10-17T21:39:12.421Z,12.30
2022-10-17T21:41:40.078Z,12.30
2022-10-17T21:44:13.256Z,12.30
2022-10-17T21:46:41.092Z,12.20
2022-10-17T21:49:12.028Z,12.30
2022-10-17T21:51:40.010Z,12.20
2022-10-17T21:54:07.577Z,12.20
2022-10-17T21:56:36.479Z,12.20
2022-10-17T21:59:05.094Z,12.20
2022-10-17T22:01:41.721Z,12.10
2022-10-17T22:04:12.628Z,12.10
2022-10-17T22:06:41.620Z,12.00
2022-10-17T22:09:15.429Z,12.00
2022-10-17T22:11:46.092Z,12.00
2022-10-17T22:14:16.178Z,12.00
2022-10-17T22:16:45.440Z,12.00
2022-10-17T22:19:15.367Z,12.00
2022-10-17T22:21:42.842Z,11.90
2022-10-17T22:24:12.619Z,11.90
2022-10-17T22:26:40.500Z,11.90
2022-10-17T22:29:08.882Z,11.80
2022-10-17T22:31:37.176Z,11.70
2022-10-17T22:34:05.821Z,11.70
2022-10-17T22:36:34.010Z,11.70
2022-10-17T22:39:01.501Z,11.70
2022-10-17T22:41:29.243Z,11.60
2022-10-17T22:43:56.648Z,11.60
2022-10-17T22:46:24.158Z,11.50
2022-10-17T22:48:51.613Z,11.60
2022-10-17T22:51:19.318Z,11.50
2022-10-17T22:53:46.776Z,11.50
2022-10-17T22:56:17.273Z,11.50
2022-10-17T22:58:45.294Z,11.50
2022-10-17T23:01:18.792Z,11.50
2022-10-17T23:03:46.545Z,11.50
2022-10-17T23:06:14.399Z,11.50
2022-10-17T23:08:42.640Z,11.40
2022-10-17T23:11:10.965Z,11.40
2022-10-17T23:13:39.860Z,11.40
2022-10-17T23:16:08.022Z,11.40
2022-10-17T23:18:35.666Z,11.40
2022-10-17T23:21:03.237Z,11.40
2022-10-17T23:23:30.615Z,11.40
2022-10-17T23:26:05.480Z,11.40
2022-10-17T23:28:35.693Z,11.40
2022-10-17T23:31:18.691Z,11.30
2022-10-17T23:33:48.463Z,11.30
2022-10-17T23:36:18.756Z,11.30
2022-10-17T23:38:47.032Z,11.30
2022-10-17T23:41:14.807Z,11.30
2022-10-17T23:43:42.315Z,11.20
2022-10-17T23:46:10.172Z,11.30
2022-10-17T23:48:38.632Z,11.20
2022-10-17T23:51:07.339Z,11.20
2022-10-17T23:53:35.798Z,11.20
2022-10-17T23:56:04.519Z,11.20
2022-10-17T23:58:31.998Z,11.20
